createdAt,value
2019-04-27T00:00:05.500Z,1.97
2019-04-27T00:02:36.663Z,3.00
2019-04-27T00:05:05.670Z,2.03
2019-04-27T00:07:34.480Z,3.63
2019-04-27T00:10:05.502Z,3.87
2019-04-27T00:12:34.262Z,4.23
2019-04-27T00:15:03.880Z,3.53
2019-04-27T00:17:45.468Z,6.07
2019-04-27T00:20:04.435Z,5.80
2019-04-27T00:22:33.508Z,4.70
2019-04-27T00:25:03.524Z,5.13
2019-04-27T00:27:33.503Z,8.13
2019-04-27T00:30:03.870Z,8.43
2019-04-27T00:32:33.242Z,7.30
2019-04-27T00:35:03.768Z,6.20
2019-04-27T00:37:34.018Z,6.43
2019-04-27T00:40:03.791Z,8.83
2019-04-27T00:42:33.372Z,5.30
2019-04-27T00:45:05.413Z,5.07
2019-04-27T00:47:35.027Z,7.37
2019-04-27T00:50:05.428Z,6.23
2019-04-27T00:52:34.882Z,6.17
2019-04-27T00:55:05.880Z,7.53
2019-04-27T00:57:34.686Z,9.90
2019-04-27T01:00:05.154Z,6.40
2019-04-27T01:02:35.471Z,7.27
2019-04-27T01:05:08.312Z,9.07
2019-04-27T01:07:37.080Z,5.33
2019-04-27T01:10:07.470Z,8.30
2019-04-27T01:12:36.299Z,7.70
2019-04-27T01:15:05.972Z,5.03
2019-04-27T01:17:34.652Z,5.40
2019-04-27T01:20:04.522Z,8.60
2019-04-27T01:22:33.319Z,6.83
2019-04-27T01:25:02.996Z,7.23
2019-04-27T01:27:31.829Z,5.03
2019-04-27T01:30:00.557Z,7.07
2019-04-27T01:32:29.351Z,6.93
2019-04-27T01:34:59.192Z,4.87
2019-04-27T01:37:28.544Z,7.70
2019-04-27T01:39:58.938Z,7.10
2019-04-27T01:42:29.392Z,5.10
2019-04-27T01:44:59.501Z,4.07
2019-04-27T01:47:28.931Z,7.17
2019-04-27T01:49:58.489Z,5.83
2019-04-27T01:52:27.305Z,7.17
2019-04-27T01:54:56.025Z,7.80
2019-04-27T01:57:24.727Z,6.80
2019-04-27T01:59:53.451Z,6.73
2019-04-27T02:02:22.199Z,6.50
2019-04-27T02:04:51.045Z,5.77
2019-04-27T02:07:19.879Z,6.40
2019-04-27T02:09:48.742Z,4.60
2019-04-27T02:12:19.075Z,6.13
2019-04-27T02:14:49.060Z,6.30
2019-04-27T02:17:18.759Z,6.23
2019-04-27T02:19:49.292Z,6.73
2019-04-27T02:22:18.667Z,6.03
2019-04-27T02:24:49.196Z,7.93
2019-04-27T02:27:18.717Z,6.50
2019-04-27T02:29:48.791Z,5.57
2019-04-27T02:32:20.186Z,5.70
2019-04-27T02:34:50.483Z,4.03
2019-04-27T02:37:19.967Z,5.37
2019-04-27T02:39:50.074Z,4.93
2019-04-27T02:42:20.014Z,5.03
2019-04-27T02:44:50.078Z,6.50
2019-04-27T02:47:20.824Z,4.90
2019-04-27T02:49:50.716Z,9.17
2019-04-27T02:52:20.157Z,8.23
2019-04-27T02:54:50.554Z,7.33
2019-04-27T02:57:20.041Z,5.27
2019-04-27T02:59:50.340Z,7.93
2019-04-27T03:02:19.813Z,8.50
2019-04-27T03:04:49.888Z,4.90
2019-04-27T03:07:20.101Z,5.57
2019-04-27T03:09:50.910Z,6.77
2019-04-27T03:12:19.253Z,7.20
2019-04-27T03:14:50.351Z,6.43
2019-04-27T03:17:20.012Z,5.83
2019-04-27T03:19:49.482Z,4.10
2019-04-27T03:22:19.426Z,4.90
2019-04-27T03:24:49.799Z,3.20
2019-04-27T03:27:19.977Z,9.30
2019-04-27T03:29:49.883Z,3.60
2019-04-27T03:32:22.060Z,4.63
2019-04-27T03:34:51.841Z,5.83
2019-04-27T03:37:20.144Z,3.70
2019-04-27T03:39:49.934Z,5.17
2019-04-27T03:42:20.594Z,10.93
2019-04-27T03:44:50.249Z,8.67
2019-04-27T03:47:19.775Z,6.20
2019-04-27T03:49:50.750Z,5.47
2019-04-27T03:52:19.741Z,5.00
2019-04-27T03:54:50.348Z,5.37
2019-04-27T03:57:19.886Z,3.30
2019-04-27T03:59:50.603Z,6.33
2019-04-27T04:02:19.798Z,4.43
2019-04-27T04:04:50.650Z,5.53
2019-04-27T04:07:19.700Z,6.00
2019-04-27T04:09:50.368Z,4.50
2019-04-27T04:12:19.809Z,3.60
2019-04-27T04:14:49.345Z,7.93
2019-04-27T04:17:20.196Z,5.07
2019-04-27T04:19:56.851Z,6.90
2019-04-27T04:22:19.841Z,6.43
2019-04-27T04:24:47.811Z,2.50
2019-04-27T04:27:16.154Z,3.70
2019-04-27T04:29:44.522Z,3.63
2019-04-27T04:32:12.858Z,5.00
2019-04-27T04:34:41.218Z,4.70
2019-04-27T04:37:09.494Z,7.43
2019-04-27T04:39:40.320Z,5.10
2019-04-27T04:42:10.255Z,4.83
2019-04-27T04:44:40.067Z,5.33
2019-04-27T04:47:10.191Z,3.57
2019-04-27T04:49:39.736Z,3.53
2019-04-27T04:52:09.626Z,5.53
2019-04-27T04:54:37.864Z,4.13
2019-04-27T04:57:06.153Z,5.30
2019-04-27T04:59:34.587Z,7.17
2019-04-27T05:02:03.033Z,5.27
2019-04-27T05:04:31.339Z,5.80
2019-04-27T05:06:59.664Z,4.47
2019-04-27T05:09:29.547Z,3.77
2019-04-27T05:11:58.780Z,4.63
2019-04-27T05:14:28.826Z,4.50
2019-04-27T05:16:59.036Z,5.10
2019-04-27T05:19:28.741Z,5.30
2019-04-27T05:21:59.152Z,6.07
2019-04-27T05:24:28.743Z,4.00
2019-04-27T05:26:58.887Z,4.03
2019-04-27T05:29:27.113Z,3.83
2019-04-27T05:31:55.402Z,4.67
2019-04-27T05:34:23.684Z,3.87
2019-04-27T05:36:52.634Z,4.97
2019-04-27T05:39:24.823Z,4.00
2019-04-27T05:41:51.023Z,4.07
2019-04-27T05:44:20.821Z,3.70
2019-04-27T05:46:49.348Z,7.27
2019-04-27T05:49:20.624Z,3.37
2019-04-27T05:51:50.146Z,5.87
2019-04-27T05:54:19.230Z,4.60
2019-04-27T05:56:49.244Z,5.47
2019-04-27T05:59:19.276Z,4.47
2019-04-27T06:01:49.240Z,5.37
2019-04-27T06:04:19.314Z,4.13
2019-04-27T06:06:49.654Z,5.50
2019-04-27T06:09:19.185Z,4.10
2019-04-27T06:11:48.657Z,4.03
2019-04-27T06:14:19.223Z,4.40
2019-04-27T06:16:49.379Z,7.80
2019-04-27T06:19:19.280Z,4.53
2019-04-27T06:21:47.771Z,6.10
2019-04-27T06:24:16.123Z,7.33
2019-04-27T06:26:44.531Z,5.67
2019-04-27T06:29:12.878Z,5.27
2019-04-27T06:31:41.241Z,7.03
2019-04-27T06:34:09.912Z,8.37
2019-04-27T06:36:38.731Z,8.07
2019-04-27T06:39:07.263Z,5.23
2019-04-27T06:41:35.608Z,5.13
2019-04-27T06:44:03.908Z,4.67
2019-04-27T06:46:32.200Z,6.17
2019-04-27T06:49:00.582Z,5.50
2019-04-27T06:51:28.944Z,9.73
2019-04-27T06:53:57.273Z,7.00
2019-04-27T06:56:25.543Z,6.23
2019-04-27T06:58:53.907Z,9.87
2019-04-27T07:01:22.179Z,6.23
2019-04-27T07:03:50.497Z,8.30
2019-04-27T07:06:18.841Z,7.40
2019-04-27T07:08:47.136Z,7.80
2019-04-27T07:11:15.519Z,8.33
2019-04-27T07:13:43.839Z,9.03
2019-04-27T07:16:12.119Z,7.93
2019-04-27T07:18:40.425Z,6.57
2019-04-27T07:21:17.004Z,9.67
2019-04-27T07:23:38.915Z,7.63
2019-04-27T07:26:07.297Z,9.17
2019-04-27T07:28:35.565Z,7.97
2019-04-27T07:31:04.007Z,9.63
2019-04-27T07:33:32.275Z,10.17
2019-04-27T07:36:00.576Z,10.17
2019-04-27T07:38:29.416Z,8.47
2019-04-27T07:40:58.674Z,8.43
2019-04-27T07:43:29.164Z,9.77
2019-04-27T07:45:58.952Z,8.50
2019-04-27T07:48:28.536Z,13.03
2019-04-27T07:50:56.974Z,7.57
2019-04-27T07:53:25.316Z,9.33
2019-04-27T07:55:53.612Z,8.47
2019-04-27T07:58:22.284Z,9.93
2019-04-27T08:00:51.072Z,8.27
2019-04-27T08:03:19.652Z,10.97
2019-04-27T08:05:49.080Z,8.13
2019-04-27T08:08:18.967Z,9.17
2019-04-27T08:10:48.409Z,6.97
2019-04-27T08:13:17.372Z,8.57
2019-04-27T08:15:45.659Z,11.00
2019-04-27T08:18:14.010Z,13.73
2019-04-27T08:20:42.446Z,9.37
2019-04-27T08:23:10.719Z,8.13
2019-04-27T08:25:39.306Z,8.47
2019-04-27T08:28:08.555Z,7.67
2019-04-27T08:30:39.306Z,10.67
2019-04-27T08:33:09.149Z,8.80
2019-04-27T08:35:38.920Z,7.10
2019-04-27T08:38:09.046Z,7.00
2019-04-27T08:40:39.235Z,7.97
2019-04-27T08:43:09.079Z,8.87
2019-04-27T08:45:39.209Z,9.47
2019-04-27T08:48:09.362Z,8.40
2019-04-27T08:50:39.872Z,7.67
2019-04-27T08:53:09.699Z,8.80
2019-04-27T08:55:39.340Z,7.03
2019-04-27T08:58:09.852Z,10.20
2019-04-27T09:00:39.060Z,7.30
2019-04-27T09:03:09.530Z,12.60
2019-04-27T09:05:38.972Z,8.57
2019-04-27T09:08:08.709Z,12.17
2019-04-27T09:10:38.808Z,8.83
2019-04-27T09:13:08.886Z,11.93
2019-04-27T09:15:39.172Z,4.20
2019-04-27T09:18:09.038Z,3.47
2019-04-27T09:20:39.020Z,6.67
2019-04-27T09:23:09.702Z,3.17
2019-04-27T09:25:39.632Z,3.47
2019-04-27T09:28:08.816Z,4.17
2019-04-27T09:30:39.277Z,6.03
2019-04-27T09:33:08.312Z,4.37
2019-04-27T09:35:37.017Z,4.53
2019-04-27T09:38:07.053Z,7.33
2019-04-27T09:40:36.133Z,5.83
2019-04-27T09:43:05.061Z,6.03
2019-04-27T09:45:34.119Z,4.60
2019-04-27T09:48:03.280Z,7.67
2019-04-27T09:50:31.998Z,8.37
2019-04-27T09:53:00.861Z,7.40
2019-04-27T09:55:29.699Z,4.20
2019-04-27T09:57:58.639Z,6.33
2019-04-27T10:00:27.858Z,5.83
2019-04-27T10:02:56.674Z,5.97
2019-04-27T10:05:26.333Z,7.97
2019-04-27T10:07:56.769Z,8.03
2019-04-27T10:10:26.818Z,3.87
2019-04-27T10:12:56.859Z,3.80
2019-04-27T10:15:26.676Z,7.10
2019-04-27T10:17:57.626Z,6.57
2019-04-27T10:20:26.219Z,8.07
2019-04-27T10:22:56.409Z,11.13
2019-04-27T10:25:25.386Z,7.37
2019-04-27T10:27:55.501Z,7.97
2019-04-27T10:30:25.796Z,5.80
2019-04-27T10:32:54.717Z,7.63
2019-04-27T10:35:23.686Z,8.93
2019-04-27T10:37:53.438Z,8.15
2019-04-27T10:40:22.313Z,6.07
2019-04-27T10:42:51.096Z,6.17
2019-04-27T10:45:19.894Z,8.07
2019-04-27T10:47:49.650Z,9.90
2019-04-27T10:50:19.451Z,7.27
2019-04-27T10:52:53.664Z,6.27
2019-04-27T10:55:18.724Z,10.80
2019-04-27T10:57:47.451Z,9.60
2019-04-27T11:00:16.784Z,8.07
2019-04-27T11:02:45.655Z,10.83
2019-04-27T11:05:14.703Z,7.70
2019-04-27T11:07:43.408Z,7.90
2019-04-27T11:10:12.290Z,8.90
2019-04-27T11:12:41.170Z,9.37
2019-04-27T11:15:10.814Z,7.77
2019-04-27T11:17:39.606Z,5.77
2019-04-27T11:20:08.929Z,9.93
2019-04-27T11:22:37.695Z,8.30
2019-04-27T11:25:07.872Z,10.63
2019-04-27T11:27:36.690Z,6.43
2019-04-27T11:30:07.797Z,5.33
2019-04-27T11:32:37.800Z,4.20
2019-04-27T11:35:06.866Z,2.43
2019-04-27T11:37:37.327Z,3.23
2019-04-27T11:40:11.060Z,3.33
2019-04-27T11:42:39.923Z,4.03
2019-04-27T11:45:09.201Z,5.53
2019-04-27T11:47:37.898Z,7.50
2019-04-27T11:50:08.283Z,4.63
2019-04-27T11:52:37.222Z,6.27
2019-04-27T11:55:06.971Z,4.40
2019-04-27T11:57:37.601Z,5.67
2019-04-27T12:00:09.353Z,6.20
2019-04-27T12:02:38.113Z,11.33
2019-04-27T12:05:07.936Z,5.70
2019-04-27T12:07:36.815Z,7.03
2019-04-27T12:10:07.748Z,9.97
2019-04-27T12:12:36.589Z,7.53
2019-04-27T12:15:09.044Z,3.83
2019-04-27T12:17:37.839Z,11.53
2019-04-27T12:20:07.224Z,6.93
2019-04-27T12:22:36.018Z,8.97
2019-04-27T12:25:07.827Z,7.00
2019-04-27T12:27:36.627Z,10.47
2019-04-27T12:30:06.480Z,7.37
2019-04-27T12:32:35.978Z,5.00
2019-04-27T12:35:06.731Z,8.23
2019-04-27T12:37:35.634Z,6.80
2019-04-27T12:40:05.950Z,8.77
2019-04-27T12:42:36.242Z,6.23
2019-04-27T12:45:07.343Z,6.70
2019-04-27T12:47:36.452Z,7.03
2019-04-27T12:50:06.584Z,10.17
2019-04-27T12:52:36.037Z,7.40
2019-04-27T12:55:07.365Z,6.60
2019-04-27T12:57:36.400Z,7.80
2019-04-27T13:00:06.520Z,6.10
2019-04-27T13:02:34.958Z,7.93
2019-04-27T13:05:05.729Z,9.77
2019-04-27T13:07:34.262Z,9.13
2019-04-27T13:10:05.556Z,9.33
2019-04-27T13:12:35.717Z,7.73
2019-04-27T13:15:05.673Z,10.47
2019-04-27T13:17:34.080Z,7.30
2019-04-27T13:20:03.298Z,9.73
2019-04-27T13:22:31.588Z,7.17
2019-04-27T13:24:59.891Z,9.80
2019-04-27T13:27:28.157Z,8.03
2019-04-27T13:29:57.474Z,5.50
2019-04-27T13:32:26.562Z,8.60
2019-04-27T13:34:56.618Z,6.97
2019-04-27T13:37:26.260Z,6.53
2019-04-27T13:40:04.727Z,8.10
2019-04-27T13:42:25.777Z,10.67
2019-04-27T13:44:55.738Z,4.87
2019-04-27T13:47:24.178Z,3.80
2019-04-27T13:49:52.558Z,5.10
2019-04-27T13:52:20.886Z,5.30
2019-04-27T13:54:49.275Z,5.03
2019-04-27T13:57:18.451Z,4.30
2019-04-27T13:59:46.923Z,3.70
2019-04-27T14:02:16.008Z,5.33
2019-04-27T14:04:44.493Z,4.27
2019-04-27T14:07:12.823Z,5.37
2019-04-27T14:09:41.135Z,7.20
2019-04-27T14:12:09.478Z,5.70
2019-04-27T14:14:39.024Z,4.17
2019-04-27T14:17:07.895Z,4.63
2019-04-27T14:19:39.480Z,5.70
2019-04-27T14:22:09.166Z,5.07
2019-04-27T14:24:38.633Z,6.27
2019-04-27T14:27:07.362Z,6.20
2019-04-27T14:29:35.718Z,3.47
2019-04-27T14:32:04.410Z,4.37
2019-04-27T14:34:32.905Z,3.93
2019-04-27T14:37:01.342Z,4.10
2019-04-27T14:39:29.626Z,5.03
2019-04-27T14:41:58.076Z,3.57
2019-04-27T14:44:26.467Z,7.30
2019-04-27T14:46:54.810Z,7.80
2019-04-27T14:49:23.169Z,6.30
2019-04-27T14:51:51.474Z,4.67
2019-04-27T14:54:19.876Z,4.87
2019-04-27T14:56:48.857Z,4.40
2019-04-27T14:59:18.784Z,3.57
2019-04-27T15:01:48.676Z,5.70
2019-04-27T15:04:17.042Z,3.60
2019-04-27T15:06:45.705Z,3.17
2019-04-27T15:09:18.048Z,4.93
2019-04-27T15:11:45.081Z,3.30
2019-04-27T15:14:16.226Z,7.10
2019-04-27T15:16:47.221Z,9.10
2019-04-27T15:19:17.653Z,5.70
2019-04-27T15:21:57.805Z,9.37
2019-04-27T15:24:13.822Z,7.53
2019-04-27T15:26:42.166Z,7.87
2019-04-27T15:29:12.077Z,7.83
2019-04-27T15:31:40.861Z,9.10
2019-04-27T15:34:11.128Z,7.90
2019-04-27T15:36:39.297Z,4.83
2019-04-27T15:39:07.897Z,6.00
2019-04-27T15:41:37.812Z,5.40
2019-04-27T15:44:08.894Z,5.53
2019-04-27T15:46:36.281Z,8.10
2019-04-27T15:49:09.607Z,6.30
2019-04-27T15:51:34.599Z,5.33
2019-04-27T15:54:04.480Z,7.07
2019-04-27T15:56:35.163Z,6.20
2019-04-27T15:59:02.924Z,8.20
2019-04-27T16:01:35.775Z,7.50
2019-04-27T16:04:06.609Z,8.10
2019-04-27T16:06:31.320Z,8.00
2019-04-27T16:08:59.690Z,9.47
2019-04-27T16:11:27.971Z,8.77
2019-04-27T16:13:56.275Z,6.80
2019-04-27T16:16:28.789Z,9.07
2019-04-27T16:18:54.719Z,9.70
2019-04-27T16:21:22.990Z,6.20
2019-04-27T16:23:52.838Z,7.27
2019-04-27T16:26:21.119Z,8.10
2019-04-27T16:28:52.950Z,9.27
2019-04-27T16:31:20.432Z,6.00
2019-04-27T16:33:49.716Z,9.57
2019-04-27T16:36:19.758Z,7.30
2019-04-27T16:38:48.250Z,9.07
2019-04-27T16:41:18.044Z,7.93
2019-04-27T16:43:48.832Z,11.57
2019-04-27T16:46:19.032Z,8.27
2019-04-27T16:48:47.047Z,8.30
2019-04-27T16:51:15.443Z,7.43
2019-04-27T16:53:43.907Z,9.10
2019-04-27T16:56:14.740Z,9.00
2019-04-27T16:58:42.324Z,7.67
2019-04-27T17:01:10.987Z,8.20
2019-04-27T17:03:41.412Z,10.97
2019-04-27T17:06:09.670Z,8.73
2019-04-27T17:08:39.395Z,8.10
2019-04-27T17:11:12.957Z,7.57
2019-04-27T17:13:39.242Z,7.97
2019-04-27T17:16:08.669Z,9.20
2019-04-27T17:18:38.553Z,9.40
2019-04-27T17:21:18.424Z,7.00
2019-04-27T17:23:38.771Z,9.00
2019-04-27T17:26:20.582Z,11.63
2019-04-27T17:28:39.134Z,9.33
2019-04-27T17:31:08.767Z,12.97
2019-04-27T17:33:38.159Z,11.73
2019-04-27T17:36:12.082Z,9.37
2019-04-27T17:38:42.583Z,10.33
2019-04-27T17:41:12.630Z,11.73
2019-04-27T17:43:41.532Z,12.10
2019-04-27T17:46:11.534Z,9.87
2019-04-27T17:48:41.344Z,11.27
2019-04-27T17:51:11.201Z,12.57
2019-04-27T17:53:40.127Z,11.07
2019-04-27T17:56:09.145Z,11.43
2019-04-27T17:58:39.838Z,9.07
2019-04-27T18:01:08.687Z,6.47
2019-04-27T18:03:38.745Z,9.17
2019-04-27T18:06:08.650Z,9.37
2019-04-27T18:08:39.921Z,13.30
2019-04-27T18:11:08.882Z,10.53
2019-04-27T18:13:38.786Z,9.90
2019-04-27T18:16:09.235Z,8.47
2019-04-27T18:18:40.292Z,7.60
2019-04-27T18:21:09.456Z,8.83
2019-04-27T18:23:41.434Z,11.17
2019-04-27T18:26:12.721Z,8.57
2019-04-27T18:28:41.091Z,9.83
2019-04-27T18:31:11.534Z,10.07
2019-04-27T18:33:42.216Z,14.10
2019-04-27T18:36:14.252Z,10.40
2019-04-27T18:38:42.627Z,11.43
2019-04-27T18:41:11.998Z,10.43
2019-04-27T18:43:46.529Z,11.27
2019-04-27T18:46:14.925Z,10.63
2019-04-27T18:48:44.894Z,8.70
2019-04-27T18:51:12.934Z,6.60
2019-04-27T18:53:44.418Z,7.63
2019-04-27T18:56:13.461Z,9.83
2019-04-27T18:58:42.261Z,8.07
2019-04-27T19:01:11.206Z,12.93
2019-04-27T19:03:40.009Z,9.80
2019-04-27T19:06:08.801Z,16.93
2019-04-27T19:08:38.589Z,11.53
2019-04-27T19:11:09.072Z,11.13
2019-04-27T19:13:38.184Z,10.27
2019-04-27T19:16:08.395Z,15.13
2019-04-27T19:18:37.785Z,9.57
2019-04-27T19:21:08.797Z,15.63
2019-04-27T19:23:38.196Z,19.43
2019-04-27T19:26:08.744Z,23.37
2019-04-27T19:28:39.208Z,27.13
2019-04-27T19:31:08.361Z,24.93
2019-04-27T19:33:37.231Z,24.83
2019-04-27T19:36:06.435Z,27.27
2019-04-27T19:38:35.290Z,24.43
2019-04-27T19:41:04.193Z,22.53
2019-04-27T19:43:33.081Z,22.37
2019-04-27T19:46:01.841Z,21.43
2019-04-27T19:48:30.710Z,19.63
2019-04-27T19:51:00.173Z,17.50
2019-04-27T19:53:29.071Z,18.93
2019-04-27T19:55:58.137Z,21.03
2019-04-27T19:58:28.781Z,15.03
2019-04-27T20:01:09.633Z,18.87
2019-04-27T20:03:28.866Z,11.50
2019-04-27T20:05:59.191Z,15.37
2019-04-27T20:08:29.761Z,17.50
2019-04-27T20:10:58.793Z,14.23
2019-04-27T20:13:27.705Z,14.30
2019-04-27T20:15:57.585Z,19.00
2019-04-27T20:18:26.534Z,16.57
2019-04-27T20:20:55.398Z,16.60
2019-04-27T20:23:24.707Z,17.23
2019-04-27T20:25:53.515Z,20.60
2019-04-27T20:28:23.135Z,15.63
2019-04-27T20:30:52.132Z,17.10
2019-04-27T20:33:21.139Z,14.40
2019-04-27T20:35:51.030Z,13.20
2019-04-27T20:38:21.426Z,19.50
2019-04-27T20:40:52.853Z,11.90
2019-04-27T20:43:24.464Z,15.83
2019-04-27T20:45:52.369Z,20.83
2019-04-27T20:48:21.279Z,17.07
2019-04-27T20:50:51.334Z,16.27
2019-04-27T20:53:20.858Z,16.77
2019-04-27T20:55:49.755Z,17.33
2019-04-27T20:58:18.816Z,15.80
2019-04-27T21:00:47.744Z,13.70
2019-04-27T21:03:16.555Z,19.77
2019-04-27T21:05:45.503Z,12.27
2019-04-27T21:08:14.459Z,18.40
2019-04-27T21:10:44.855Z,13.03
2019-04-27T21:13:14.542Z,13.43
2019-04-27T21:15:43.327Z,19.57
2019-04-27T21:18:12.212Z,17.50
2019-04-27T21:20:41.316Z,15.50
2019-04-27T21:23:11.999Z,17.57
2019-04-27T21:25:42.121Z,15.00
2019-04-27T21:28:17.961Z,19.90
2019-04-27T21:30:42.154Z,12.37
2019-04-27T21:33:11.473Z,18.77
2019-04-27T21:35:40.453Z,16.20
2019-04-27T21:38:11.672Z,15.43
2019-04-27T21:40:40.862Z,18.33
2019-04-27T21:43:11.336Z,15.00
2019-04-27T21:45:41.870Z,16.03
2019-04-27T21:48:11.049Z,16.40
2019-04-27T21:50:41.294Z,13.63
2019-04-27T21:53:11.056Z,23.30
2019-04-27T21:55:39.978Z,15.03
2019-04-27T21:58:08.930Z,12.90
2019-04-27T22:00:38.028Z,19.40
2019-04-27T22:03:06.997Z,16.10
2019-04-27T22:05:36.694Z,19.27
2019-04-27T22:08:05.733Z,28.80
2019-04-27T22:10:34.705Z,20.60
2019-04-27T22:13:03.729Z,16.00
2019-04-27T22:15:32.753Z,16.57
2019-04-27T22:18:02.597Z,18.50
2019-04-27T22:20:32.453Z,17.37
2019-04-27T22:23:01.817Z,11.60
2019-04-27T22:25:31.735Z,15.93
2019-04-27T22:28:01.533Z,15.27
2019-04-27T22:30:31.205Z,12.40
2019-04-27T22:33:01.444Z,18.10
2019-04-27T22:35:31.285Z,14.77
2019-04-27T22:38:01.969Z,18.27
2019-04-27T22:40:31.617Z,19.13
2019-04-27T22:43:01.940Z,19.90
2019-04-27T22:45:30.832Z,18.50
2019-04-27T22:48:01.193Z,13.57
2019-04-27T22:50:31.287Z,13.30
2019-04-27T22:53:00.728Z,11.77
2019-04-27T22:55:31.045Z,17.30
2019-04-27T22:58:01.673Z,18.93
2019-04-27T23:00:31.136Z,16.63
2019-04-27T23:03:00.646Z,20.80
2019-04-27T23:05:31.960Z,15.07
2019-04-27T23:08:01.935Z,16.57
2019-04-27T23:10:31.486Z,15.00
2019-04-27T23:13:01.018Z,14.77
2019-04-27T23:15:30.660Z,15.97
2019-04-27T23:18:00.471Z,19.97
2019-04-27T23:20:29.225Z,20.03
2019-04-27T23:22:58.014Z,18.50
2019-04-27T23:25:26.824Z,9.90
2019-04-27T23:27:55.598Z,18.37
2019-04-27T23:30:24.331Z,17.70
2019-04-27T23:32:53.120Z,21.10
2019-04-27T23:35:21.874Z,20.90
2019-04-27T23:37:50.804Z,19.63
2019-04-27T23:40:21.954Z,14.30
2019-04-27T23:42:51.605Z,17.83
2019-04-27T23:45:22.301Z,24.57
2019-04-27T23:47:51.146Z,16.77
2019-04-27T23:50:21.768Z,17.10
2019-04-27T23:52:50.684Z,20.07
2019-04-27T23:55:20.933Z,15.67
2019-04-27T23:57:49.763Z,16.80
